sensor_id;sensor_type;location;lat;lon;timestamp;pressure;altitude;pressure_sealevel;temperature;humidity
12757;BME280;31601;48.042;12.240;2023-03-04T00:00:58;96522.47;;;1.61;69.73
12757;BME280;31601;48.042;12.240;2023-03-04T00:03:24;96525.75;;;1.64;69.68
12757;BME280;31601;48.042;12.240;2023-03-04T00:05:51;96526.47;;;1.66;69.62
12757;BME280;31601;48.042;12.240;2023-03-04T00:08:17;96532.34;;;1.68;70.24
12757;BME280;31601;48.042;12.240;2023-03-04T00:10:44;96534.69;;;1.71;69.93
12757;BME280;31601;48.042;12.240;2023-03-04T00:13:10;96540.31;;;1.76;69.96
12757;BME280;31601;48.042;12.240;2023-03-04T00:15:37;96545.50;;;1.65;70.14
12757;BME280;31601;48.042;12.240;2023-03-04T00:18:05;96551.63;;;1.52;70.34
12757;BME280;31601;48.042;12.240;2023-03-04T00:20:31;96541.63;;;1.59;70.10
12757;BME280;31601;48.042;12.240;2023-03-04T00:22:57;96534.47;;;1.63;69.97
12757;BME280;31601;48.042;12.240;2023-03-04T00:25:24;96532.56;;;1.65;69.99
12757;BME280;31601;48.042;12.240;2023-03-04T00:27:50;96540.00;;;1.58;70.37
12757;BME280;31601;48.042;12.240;2023-03-04T00:30:17;96542.22;;;1.63;70.37
12757;BME280;31601;48.042;12.240;2023-03-04T00:32:43;96539.84;;;1.71;70.53
12757;BME280;31601;48.042;12.240;2023-03-04T00:35:11;96550.22;;;1.59;70.63
12757;BME280;31601;48.042;12.240;2023-03-04T00:37:37;96550.59;;;1.32;71.10
12757;BME280;31601;48.042;12.240;2023-03-04T00:40:05;96548.72;;;1.34;70.83
12757;BME280;31601;48.042;12.240;2023-03-04T00:42:31;96555.50;;;1.47;70.42
12757;BME280;31601;48.042;12.240;2023-03-04T00:44:58;96552.81;;;1.48;70.35
12757;BME280;31601;48.042;12.240;2023-03-04T00:47:25;96546.50;;;1.41;70.06
12757;BME280;31601;48.042;12.240;2023-03-04T00:49:51;96546.03;;;1.24;70.26
12757;BME280;31601;48.042;12.240;2023-03-04T00:52:19;96557.75;;;1.06;70.85
12757;BME280;31601;48.042;12.240;2023-03-04T00:54:46;96557.75;;;1.17;70.30
12757;BME280;31601;48.042;12.240;2023-03-04T00:57:12;96546.94;;;1.23;70.26
12757;BME280;31601;48.042;12.240;2023-03-04T00:59:38;96542.38;;;1.27;70.04
12757;BME280;31601;48.042;12.240;2023-03-04T01:02:07;96545.19;;;1.13;70.14
12757;BME280;31601;48.042;12.240;2023-03-04T01:04:34;96541.09;;;1.21;70.29
12757;BME280;31601;48.042;12.240;2023-03-04T01:07:01;96537.56;;;1.22;70.10
12757;BME280;31601;48.042;12.240;2023-03-04T01:09:29;96535.69;;;1.13;70.87
12757;BME280;31601;48.042;12.240;2023-03-04T01:11:55;96534.75;;;1.25;70.72
12757;BME280;31601;48.042;12.240;2023-03-04T01:14:22;96534.94;;;1.45;70.77
12757;BME280;31601;48.042;12.240;2023-03-04T01:16:49;96528.81;;;1.57;70.29
12757;BME280;31601;48.042;12.240;2023-03-04T01:19:16;96531.66;;;1.66;70.31
12757;BME280;31601;48.042;12.240;2023-03-04T01:21:42;96523.38;;;1.83;70.21
12757;BME280;31601;48.042;12.240;2023-03-04T01:24:09;96526.41;;;1.88;70.06
12757;BME280;31601;48.042;12.240;2023-03-04T01:26:37;96519.97;;;1.71;70.47
12757;BME280;31601;48.042;12.240;2023-03-04T01:29:03;96521.94;;;1.90;70.08
12757;BME280;31601;48.042;12.240;2023-03-04T01:31:30;96520.84;;;2.04;69.63
12757;BME280;31601;48.042;12.240;2023-03-04T01:33:56;96516.66;;;2.13;69.60
12757;BME280;31601;48.042;12.240;2023-03-04T01:36:23;96518.50;;;2.22;69.43
12757;BME280;31601;48.042;12.240;2023-03-04T01:38:49;96510.38;;;2.27;69.47
12757;BME280;31601;48.042;12.240;2023-03-04T01:41:18;96511.22;;;2.27;69.62
12757;BME280;31601;48.042;12.240;2023-03-04T01:43:49;96508.25;;;2.32;69.48
12757;BME280;31601;48.042;12.240;2023-03-04T01:46:16;96508.03;;;2.45;69.05
12757;BME280;31601;48.042;12.240;2023-03-04T01:48:43;96506.59;;;2.52;69.09
12757;BME280;31601;48.042;12.240;2023-03-04T01:51:13;96501.59;;;2.60;68.95
12757;BME280;31601;48.042;12.240;2023-03-04T01:53:41;96494.75;;;2.59;69.08
12757;BME280;31601;48.042;12.240;2023-03-04T01:56:13;96494.78;;;2.38;69.24
12757;BME280;31601;48.042;12.240;2023-03-04T01:58:41;96490.81;;;2.34;69.54
12757;BME280;31601;48.042;12.240;2023-03-04T02:01:10;96486.31;;;2.36;69.35
12757;BME280;31601;48.042;12.240;2023-03-04T02:03:36;96487.28;;;2.35;69.47
12757;BME280;31601;48.042;12.240;2023-03-04T02:06:03;96485.16;;;2.08;69.22
12757;BME280;31601;48.042;12.240;2023-03-04T02:08:30;96472.53;;;1.93;69.18
12757;BME280;31601;48.042;12.240;2023-03-04T02:10:56;96478.75;;;1.91;69.31
12757;BME280;31601;48.042;12.240;2023-03-04T02:13:23;96471.44;;;1.96;69.30
12757;BME280;31601;48.042;12.240;2023-03-04T02:15:49;96478.16;;;1.99;69.11
12757;BME280;31601;48.042;12.240;2023-03-04T02:18:19;96468.47;;;2.01;69.08
12757;BME280;31601;48.042;12.240;2023-03-04T02:20:52;96474.94;;;2.06;68.86
12757;BME280;31601;48.042;12.240;2023-03-04T02:23:23;96463.53;;;2.09;69.18
12757;BME280;31601;48.042;12.240;2023-03-04T02:26:04;96466.97;;;2.19;68.88
12757;BME280;31601;48.042;12.240;2023-03-04T02:28:32;96463.84;;;2.15;69.24
12757;BME280;31601;48.042;12.240;2023-03-04T02:30:58;96467.63;;;2.32;68.97
12757;BME280;31601;48.042;12.240;2023-03-04T02:33:25;96467.56;;;2.23;69.40
12757;BME280;31601;48.042;12.240;2023-03-04T02:35:51;96463.72;;;2.38;68.86
12757;BME280;31601;48.042;12.240;2023-03-04T02:38:18;96460.38;;;2.47;68.84
12757;BME280;31601;48.042;12.240;2023-03-04T02:40:46;96467.00;;;2.61;68.62
12757;BME280;31601;48.042;12.240;2023-03-04T02:43:15;96457.81;;;2.36;69.31
12757;BME280;31601;48.042;12.240;2023-03-04T02:45:42;96456.88;;;2.58;68.73
12757;BME280;31601;48.042;12.240;2023-03-04T02:48:10;96454.59;;;2.65;68.74
12757;BME280;31601;48.042;12.240;2023-03-04T02:50:40;96458.44;;;2.71;68.46
12757;BME280;31601;48.042;12.240;2023-03-04T02:53:08;96455.34;;;2.77;68.54
12757;BME280;31601;48.042;12.240;2023-03-04T02:55:34;96455.22;;;2.78;68.39
12757;BME280;31601;48.042;12.240;2023-03-04T02:58:01;96451.91;;;2.76;68.56
12757;BME280;31601;48.042;12.240;2023-03-04T03:00:29;96462.00;;;2.79;68.67
12757;BME280;31601;48.042;12.240;2023-03-04T03:02:55;96458.50;;;2.90;68.40
12757;BME280;31601;48.042;12.240;2023-03-04T03:05:23;96459.78;;;2.96;68.28
12757;BME280;31601;48.042;12.240;2023-03-04T03:07:50;96459.78;;;2.96;68.49
12757;BME280;31601;48.042;12.240;2023-03-04T03:10:17;96462.78;;;3.01;68.36
12757;BME280;31601;48.042;12.240;2023-03-04T03:12:43;96463.88;;;2.98;68.59
12757;BME280;31601;48.042;12.240;2023-03-04T03:15:10;96464.00;;;2.97;68.77
12757;BME280;31601;48.042;12.240;2023-03-04T03:17:38;96467.56;;;3.05;68.59
12757;BME280;31601;48.042;12.240;2023-03-04T03:20:06;96468.53;;;3.04;68.93
12757;BME280;31601;48.042;12.240;2023-03-04T03:22:32;96464.72;;;3.09;68.98
12757;BME280;31601;48.042;12.240;2023-03-04T03:24:59;96468.28;;;3.08;68.98
12757;BME280;31601;48.042;12.240;2023-03-04T03:27:25;96471.81;;;3.07;68.97
12757;BME280;31601;48.042;12.240;2023-03-04T03:29:52;96467.03;;;3.12;68.79
12757;BME280;31601;48.042;12.240;2023-03-04T03:32:18;96461.19;;;3.10;68.70
12757;BME280;31601;48.042;12.240;2023-03-04T03:34:46;96469.63;;;3.02;68.98
12757;BME280;31601;48.042;12.240;2023-03-04T03:37:13;96472.34;;;3.00;69.11
12757;BME280;31601;48.042;12.240;2023-03-04T03:39:40;96459.13;;;3.03;69.10
12757;BME280;31601;48.042;12.240;2023-03-04T03:42:06;96470.56;;;3.01;68.98
12757;BME280;31601;48.042;12.240;2023-03-04T03:44:33;96463.44;;;2.93;68.98
12757;BME280;31601;48.042;12.240;2023-03-04T03:46:59;96464.91;;;2.86;68.96
12757;BME280;31601;48.042;12.240;2023-03-04T03:49:25;96464.59;;;2.79;68.89
12757;BME280;31601;48.042;12.240;2023-03-04T03:51:53;96459.38;;;2.69;68.98
12757;BME280;31601;48.042;12.240;2023-03-04T03:54:20;96456.63;;;2.61;69.03
12757;BME280;31601;48.042;12.240;2023-03-04T03:56:46;96457.56;;;2.60;69.26
12757;BME280;31601;48.042;12.240;2023-03-04T03:59:12;96453.84;;;2.53;69.43
12757;BME280;31601;48.042;12.240;2023-03-04T04:01:39;96453.66;;;2.45;69.39
12757;BME280;31601;48.042;12.240;2023-03-04T04:04:05;96459.34;;;2.39;69.62
12757;BME280;31601;48.042;12.240;2023-03-04T04:06:32;96463.38;;;2.31;69.63
12757;BME280;31601;48.042;12.240;2023-03-04T04:09:00;96459.84;;;2.32;69.39
12757;BME280;31601;48.042;12.240;2023-03-04T04:11:26;96463.50;;;2.30;69.53
12757;BME280;31601;48.042;12.240;2023-03-04T04:13:53;96461.81;;;2.19;69.71
12757;BME280;31601;48.042;12.240;2023-03-04T04:16:19;96460.09;;;2.08;69.85
12757;BME280;31601;48.042;12.240;2023-03-04T04:18:46;96461.19;;;2.06;69.77
12757;BME280;31601;48.042;12.240;2023-03-04T04:21:12;96459.78;;;2.02;69.71
12757;BME280;31601;48.042;12.240;2023-03-04T04:23:39;96459.09;;;2.00;69.50
12757;BME280;31601;48.042;12.240;2023-03-04T04:26:07;96455.34;;;1.92;69.78
12757;BME280;31601;48.042;12.240;2023-03-04T04:28:33;96462.44;;;1.90;69.51
12757;BME280;31601;48.042;12.240;2023-03-04T04:31:00;96461.97;;;1.85;69.84
12757;BME280;31601;48.042;12.240;2023-03-04T04:33:26;96468.09;;;1.84;69.57
12757;BME280;31601;48.042;12.240;2023-03-04T04:35:52;96465.41;;;1.74;69.66
12757;BME280;31601;48.042;12.240;2023-03-04T04:38:19;96462.50;;;1.68;69.73
12757;BME280;31601;48.042;12.240;2023-03-04T04:40:45;96466.03;;;1.67;69.65
12757;BME280;31601;48.042;12.240;2023-03-04T04:43:13;96465.56;;;1.61;69.85
12757;BME280;31601;48.042;12.240;2023-03-04T04:45:40;96466.75;;;1.57;69.85
12757;BME280;31601;48.042;12.240;2023-03-04T04:48:06;96462.91;;;1.52;69.87
12757;BME280;31601;48.042;12.240;2023-03-04T04:50:33;96468.31;;;1.49;69.77
12757;BME280;31601;48.042;12.240;2023-03-04T04:52:59;96463.41;;;1.46;69.87
12757;BME280;31601;48.042;12.240;2023-03-04T04:55:26;96461.88;;;1.43;69.75
12757;BME280;31601;48.042;12.240;2023-03-04T04:57:52;96463.03;;;1.39;69.99
12757;BME280;31601;48.042;12.240;2023-03-04T05:00:20;96459.53;;;1.40;69.95
12757;BME280;31601;48.042;12.240;2023-03-04T05:02:47;96462.22;;;1.38;69.86
12757;BME280;31601;48.042;12.240;2023-03-04T05:05:13;96459.75;;;1.37;70.04
12757;BME280;31601;48.042;12.240;2023-03-04T05:07:39;96460.69;;;1.36;70.02
12757;BME280;31601;48.042;12.240;2023-03-04T05:10:07;96459.75;;;1.37;70.12
12757;BME280;31601;48.042;12.240;2023-03-04T05:12:34;96455.03;;;1.42;70.08
12757;BME280;31601;48.042;12.240;2023-03-04T05:15:00;96461.88;;;1.43;70.72
12757;BME280;31601;48.042;12.240;2023-03-04T05:17:29;96462.19;;;1.50;70.82
12757;BME280;31601;48.042;12.240;2023-03-04T05:19:55;96469.25;;;1.48;70.89
12757;BME280;31601;48.042;12.240;2023-03-04T05:22:21;96469.22;;;1.59;70.69
12757;BME280;31601;48.042;12.240;2023-03-04T05:24:48;96467.59;;;1.58;70.70
12757;BME280;31601;48.042;12.240;2023-03-04T05:27:14;96469.22;;;1.59;70.91
12757;BME280;31601;48.042;12.240;2023-03-04T05:29:40;96468.47;;;1.68;70.51
12757;BME280;31601;48.042;12.240;2023-03-04T05:32:09;96461.69;;;1.56;70.76
12757;BME280;31601;48.042;12.240;2023-03-04T05:34:36;96468.91;;;1.52;70.87
12757;BME280;31601;48.042;12.240;2023-03-04T05:37:03;96467.53;;;1.25;70.91
12757;BME280;31601;48.042;12.240;2023-03-04T05:39:29;96472.97;;;1.22;70.85
12757;BME280;31601;48.042;12.240;2023-03-04T05:41:55;96473.66;;;1.13;71.27
12757;BME280;31601;48.042;12.240;2023-03-04T05:44:22;96475.91;;;1.18;71.16
12757;BME280;31601;48.042;12.240;2023-03-04T05:46:48;96469.06;;;1.28;71.16
12757;BME280;31601;48.042;12.240;2023-03-04T05:49:15;96482.94;;;1.27;71.49
12757;BME280;31601;48.042;12.240;2023-03-04T05:51:42;96468.69;;;1.33;71.53
12757;BME280;31601;48.042;12.240;2023-03-04T05:54:09;96468.81;;;1.31;71.53
12757;BME280;31601;48.042;12.240;2023-03-04T05:56:35;96472.81;;;1.35;71.57
12757;BME280;31601;48.042;12.240;2023-03-04T05:59:02;96485.53;;;1.27;71.89
12757;BME280;31601;48.042;12.240;2023-03-04T06:01:28;96482.81;;;1.29;71.45
12757;BME280;31601;48.042;12.240;2023-03-04T06:03:55;96484.19;;;1.33;71.45
12757;BME280;31601;48.042;12.240;2023-03-04T06:06:22;96481.25;;;1.37;71.04
12757;BME280;31601;48.042;12.240;2023-03-04T06:08:49;96478.56;;;1.39;70.89
12757;BME280;31601;48.042;12.240;2023-03-04T06:11:16;96487.50;;;1.35;71.06
12757;BME280;31601;48.042;12.240;2023-03-04T06:13:42;96492.22;;;1.18;71.19
12757;BME280;31601;48.042;12.240;2023-03-04T06:16:09;96493.84;;;1.31;71.10
12757;BME280;31601;48.042;12.240;2023-03-04T06:18:35;96495.97;;;1.25;71.31
12757;BME280;31601;48.042;12.240;2023-03-04T06:21:02;96507.25;;;1.13;71.33
12757;BME280;31601;48.042;12.240;2023-03-04T06:23:29;96508.78;;;1.27;71.27
12757;BME280;31601;48.042;12.240;2023-03-04T06:25:59;96512.53;;;1.23;71.53
12757;BME280;31601;48.042;12.240;2023-03-04T06:28:26;96512.50;;;1.34;71.52
12757;BME280;31601;48.042;12.240;2023-03-04T06:30:53;96511.69;;;1.45;71.46
12757;BME280;31601;48.042;12.240;2023-03-04T06:33:20;96506.50;;;1.56;71.32
12757;BME280;31601;48.042;12.240;2023-03-04T06:35:46;96505.78;;;1.54;71.69
12757;BME280;31601;48.042;12.240;2023-03-04T06:38:13;96504.84;;;1.55;71.52
12757;BME280;31601;48.042;12.240;2023-03-04T06:40:39;96512.88;;;1.85;71.02
12757;BME280;31601;48.042;12.240;2023-03-04T06:43:07;96511.66;;;2.00;70.72
12757;BME280;31601;48.042;12.240;2023-03-04T06:45:33;96518.75;;;2.19;70.72
12757;BME280;31601;48.042;12.240;2023-03-04T06:48:00;96513.41;;;2.32;70.48
12757;BME280;31601;48.042;12.240;2023-03-04T06:50:26;96521.00;;;2.45;70.36
12757;BME280;31601;48.042;12.240;2023-03-04T06:52:55;96512.34;;;2.56;70.11
12757;BME280;31601;48.042;12.240;2023-03-04T06:55:21;96518.97;;;2.69;70.08
12757;BME280;31601;48.042;12.240;2023-03-04T06:57:48;96519.72;;;2.81;69.97
12757;BME280;31601;48.042;12.240;2023-03-04T07:00:17;96520.03;;;2.88;70.10
12757;BME280;31601;48.042;12.240;2023-03-04T07:02:43;96525.81;;;3.01;70.21
12757;BME280;31601;48.042;12.240;2023-03-04T07:05:10;96527.50;;;3.12;70.40
12757;BME280;31601;48.042;12.240;2023-03-04T07:07:36;96529.47;;;3.30;70.07
12757;BME280;31601;48.042;12.240;2023-03-04T07:10:04;96524.38;;;3.49;70.04
12757;BME280;31601;48.042;12.240;2023-03-04T07:12:31;96521.66;;;3.61;69.89
12757;BME280;31601;48.042;12.240;2023-03-04T07:14:57;96523.47;;;3.80;69.40
12757;BME280;31601;48.042;12.240;2023-03-04T07:17:25;96522.25;;;3.84;69.12
12757;BME280;31601;48.042;12.240;2023-03-04T07:19:52;96528.00;;;3.97;68.95
12757;BME280;31601;48.042;12.240;2023-03-04T07:22:18;96531.84;;;4.12;68.90
12757;BME280;31601;48.042;12.240;2023-03-04T07:24:45;96525.84;;;4.22;68.68
12757;BME280;31601;48.042;12.240;2023-03-04T07:27:11;96524.59;;;4.26;68.30
12757;BME280;31601;48.042;12.240;2023-03-04T07:29:37;96533.50;;;4.33;68.29
12757;BME280;31601;48.042;12.240;2023-03-04T07:32:06;96532.53;;;4.44;68.49
12757;BME280;31601;48.042;12.240;2023-03-04T07:34:34;96532.50;;;4.54;68.54
12757;BME280;31601;48.042;12.240;2023-03-04T07:37:00;96537.84;;;4.62;68.09
12757;BME280;31601;48.042;12.240;2023-03-04T07:39:27;96542.59;;;4.76;68.03
12757;BME280;31601;48.042;12.240;2023-03-04T07:41:53;96526.56;;;4.91;67.58
12757;BME280;31601;48.042;12.240;2023-03-04T07:44:19;96535.81;;;5.03;67.15
12757;BME280;31601;48.042;12.240;2023-03-04T07:46:46;96537.88;;;5.09;66.56
12757;BME280;31601;48.042;12.240;2023-03-04T07:49:13;96534.44;;;5.09;66.58
12757;BME280;31601;48.042;12.240;2023-03-04T07:51:41;96541.84;;;5.13;66.22
12757;BME280;31601;48.042;12.240;2023-03-04T07:54:08;96536.06;;;5.19;66.29
12757;BME280;31601;48.042;12.240;2023-03-04T07:56:35;96542.63;;;5.14;66.51
12757;BME280;31601;48.042;12.240;2023-03-04T07:59:01;96539.47;;;5.20;66.38
12757;BME280;31601;48.042;12.240;2023-03-04T08:01:29;96546.72;;;5.26;67.00
12757;BME280;31601;48.042;12.240;2023-03-04T08:03:57;96547.63;;;5.35;67.26
12757;BME280;31601;48.042;12.240;2023-03-04T08:06:24;96546.81;;;5.62;67.04
12757;BME280;31601;48.042;12.240;2023-03-04T08:08:55;96555.75;;;5.87;66.73
12757;BME280;31601;48.042;12.240;2023-03-04T08:11:23;96550.13;;;6.10;65.81
12757;BME280;31601;48.042;12.240;2023-03-04T08:13:49;96540.38;;;6.30;65.51
12757;BME280;31601;48.042;12.240;2023-03-04T08:16:18;96539.72;;;6.46;65.03
12757;BME280;31601;48.042;12.240;2023-03-04T08:18:47;96537.69;;;6.58;64.55
12757;BME280;31601;48.042;12.240;2023-03-04T08:21:15;96539.03;;;6.62;63.81
12757;BME280;31601;48.042;12.240;2023-03-04T08:23:43;96548.19;;;6.48;63.81
12757;BME280;31601;48.042;12.240;2023-03-04T08:26:15;96547.84;;;6.43;63.86
12757;BME280;31601;48.042;12.240;2023-03-04T08:28:41;96542.63;;;6.43;63.63
12757;BME280;31601;48.042;12.240;2023-03-04T08:31:10;96546.72;;;6.27;63.26
12757;BME280;31601;48.042;12.240;2023-03-04T08:33:37;96548.19;;;6.30;63.13
12757;BME280;31601;48.042;12.240;2023-03-04T08:36:04;96550.28;;;6.26;63.35
12757;BME280;31601;48.042;12.240;2023-03-04T08:38:31;96546.63;;;6.01;63.23
12757;BME280;31601;48.042;12.240;2023-03-04T08:40:57;96549.31;;;6.09;62.98
12757;BME280;31601;48.042;12.240;2023-03-04T08:43:26;96550.56;;;6.05;63.33
12757;BME280;31601;48.042;12.240;2023-03-04T08:45:53;96553.50;;;5.92;63.82
12757;BME280;31601;48.042;12.240;2023-03-04T08:48:20;96548.00;;;5.96;63.69
12757;BME280;31601;48.042;12.240;2023-03-04T08:50:48;96560.81;;;5.89;63.85
12757;BME280;31601;48.042;12.240;2023-03-04T08:53:15;96558.19;;;5.89;64.09
12757;BME280;31601;48.042;12.240;2023-03-04T08:55:43;96562.28;;;5.91;63.85
12757;BME280;31601;48.042;12.240;2023-03-04T08:58:10;96557.22;;;5.90;63.44
12757;BME280;31601;48.042;12.240;2023-03-04T09:00:42;96560.94;;;5.87;63.55
12757;BME280;31601;48.042;12.240;2023-03-04T09:03:10;96560.50;;;5.92;63.37
12757;BME280;31601;48.042;12.240;2023-03-04T09:05:37;96553.81;;;5.89;63.28
12757;BME280;31601;48.042;12.240;2023-03-04T09:08:04;96545.41;;;5.96;63.34
12757;BME280;31601;48.042;12.240;2023-03-04T09:10:31;96553.00;;;5.89;64.04
12757;BME280;31601;48.042;12.240;2023-03-04T09:12:57;96546.84;;;6.08;63.53
12757;BME280;31601;48.042;12.240;2023-03-04T09:15:25;96534.81;;;6.25;63.96
12757;BME280;31601;48.042;12.240;2023-03-04T09:17:53;96531.75;;;6.48;63.22
12757;BME280;31601;48.042;12.240;2023-03-04T09:20:22;96532.84;;;6.63;63.18
12757;BME280;31601;48.042;12.240;2023-03-04T09:22:49;96533.09;;;6.78;62.94
12757;BME280;31601;48.042;12.240;2023-03-04T09:25:15;96524.13;;;6.98;62.27
12757;BME280;31601;48.042;12.240;2023-03-04T09:27:42;96529.09;;;7.18;62.48
12757;BME280;31601;48.042;12.240;2023-03-04T09:30:09;96529.16;;;7.26;61.99
12757;BME280;31601;48.042;12.240;2023-03-04T09:32:36;96521.72;;;7.40;61.58
12757;BME280;31601;48.042;12.240;2023-03-04T09:35:05;96519.34;;;7.55;61.02
12757;BME280;31601;48.042;12.240;2023-03-04T09:37:31;96529.78;;;7.55;60.56
12757;BME280;31601;48.042;12.240;2023-03-04T09:39:58;96526.72;;;7.67;60.38
12757;BME280;31601;48.042;12.240;2023-03-04T09:42:27;96522.41;;;7.50;58.48
12757;BME280;31601;48.042;12.240;2023-03-04T09:44:55;96524.78;;;7.69;58.24
12757;BME280;31601;48.042;12.240;2023-03-04T09:47:22;96520.84;;;7.65;58.20
12757;BME280;31601;48.042;12.240;2023-03-04T09:49:54;96507.25;;;7.53;57.22
12757;BME280;31601;48.042;12.240;2023-03-04T09:52:30;96514.28;;;7.53;57.52
12757;BME280;31601;48.042;12.240;2023-03-04T09:55:05;96516.25;;;7.59;57.75
12757;BME280;31601;48.042;12.240;2023-03-04T09:57:45;96509.81;;;7.37;57.64
12757;BME280;31601;48.042;12.240;2023-03-04T10:00:15;96510.19;;;7.16;59.21
12757;BME280;31601;48.042;12.240;2023-03-04T10:02:52;96509.44;;;7.75;56.67
12757;BME280;31601;48.042;12.240;2023-03-04T10:05:27;96507.09;;;8.14;56.12
12757;BME280;31601;48.042;12.240;2023-03-04T10:07:59;96504.16;;;8.34;56.34
12757;BME280;31601;48.042;12.240;2023-03-04T10:10:29;96502.06;;;8.54;54.92
12757;BME280;31601;48.042;12.240;2023-03-04T10:12:57;96504.00;;;8.76;54.99
12757;BME280;31601;48.042;12.240;2023-03-04T10:15:31;96502.69;;;8.89;54.52
12757;BME280;31601;48.042;12.240;2023-03-04T10:18:02;96492.81;;;9.07;54.35
12757;BME280;31601;48.042;12.240;2023-03-04T10:20:36;96491.59;;;8.62;54.92
12757;BME280;31601;48.042;12.240;2023-03-04T10:23:14;96488.13;;;8.86;54.41
12757;BME280;31601;48.042;12.240;2023-03-04T10:25:43;96487.56;;;9.24;53.82
12757;BME280;31601;48.042;12.240;2023-03-04T10:28:15;96488.34;;;9.24;52.62
12757;BME280;31601;48.042;12.240;2023-03-04T10:30:47;96478.81;;;8.84;52.84
12757;BME280;31601;48.042;12.240;2023-03-04T10:33:16;96483.59;;;8.47;52.73
12757;BME280;31601;48.042;12.240;2023-03-04T10:35:45;96478.19;;;8.40;52.74
12757;BME280;31601;48.042;12.240;2023-03-04T10:38:15;96482.41;;;8.83;51.91
12757;BME280;31601;48.042;12.240;2023-03-04T10:40:41;96478.84;;;8.59;52.82
12757;BME280;31601;48.042;12.240;2023-03-04T10:43:14;96474.06;;;8.87;52.13
12757;BME280;31601;48.042;12.240;2023-03-04T10:45:40;96476.34;;;8.90;52.28
12757;BME280;31601;48.042;12.240;2023-03-04T10:48:17;96467.34;;;8.93;51.89
12757;BME280;31601;48.042;12.240;2023-03-04T10:50:44;96464.78;;;9.24;51.47
12757;BME280;31601;48.042;12.240;2023-03-04T10:53:30;96472.00;;;9.62;51.57
12757;BME280;31601;48.042;12.240;2023-03-04T10:55:58;96466.66;;;10.33;49.93
12757;BME280;31601;48.042;12.240;2023-03-04T10:58:24;96463.09;;;10.64;48.93
12757;BME280;31601;48.042;12.240;2023-03-04T11:01:00;96460.06;;;10.90;48.25
12757;BME280;31601;48.042;12.240;2023-03-04T11:03:32;96457.25;;;11.21;47.54
12757;BME280;31601;48.042;12.240;2023-03-04T11:06:14;96458.22;;;11.35;47.24
12757;BME280;31601;48.042;12.240;2023-03-04T11:08:44;96445.50;;;11.02;46.43
12757;BME280;31601;48.042;12.240;2023-03-04T11:11:27;96448.56;;;11.21;46.62
12757;BME280;31601;48.042;12.240;2023-03-04T11:14:00;96446.13;;;10.89;47.65
12757;BME280;31601;48.042;12.240;2023-03-04T11:16:29;96442.69;;;10.36;47.72
12757;BME280;31601;48.042;12.240;2023-03-04T11:18:58;96436.03;;;10.48;47.56
12757;BME280;31601;48.042;12.240;2023-03-04T11:21:29;96438.81;;;10.47;46.46
12757;BME280;31601;48.042;12.240;2023-03-04T11:23:59;96433.94;;;10.20;47.48
12757;BME280;31601;48.042;12.240;2023-03-04T11:26:29;96431.81;;;10.62;46.40
12757;BME280;31601;48.042;12.240;2023-03-04T11:28:59;96430.25;;;10.30;46.82
12757;BME280;31601;48.042;12.240;2023-03-04T11:31:31;96422.75;;;10.27;45.09
12757;BME280;31601;48.042;12.240;2023-03-04T11:34:02;96424.63;;;10.18;47.38
12757;BME280;31601;48.042;12.240;2023-03-04T11:36:34;96433.06;;;10.28;45.50
12757;BME280;31601;48.042;12.240;2023-03-04T11:39:13;96429.28;;;10.31;45.61
12757;BME280;31601;48.042;12.240;2023-03-04T11:41:48;96437.38;;;9.43;46.00
12757;BME280;31601;48.042;12.240;2023-03-04T11:44:16;96429.88;;;9.72;45.85
12757;BME280;31601;48.042;12.240;2023-03-04T11:46:58;96429.88;;;9.95;46.71
12757;BME280;31601;48.042;12.240;2023-03-04T11:49:56;96423.28;;;9.76;46.48
12757;BME280;31601;48.042;12.240;2023-03-04T11:52:34;96427.09;;;9.65;46.59
12757;BME280;31601;48.042;12.240;2023-03-04T11:55:17;96417.16;;;10.07;46.44
12757;BME280;31601;48.042;12.240;2023-03-04T11:57:55;96416.59;;;10.43;47.91
12757;BME280;31601;48.042;12.240;2023-03-04T12:00:33;96415.34;;;10.98;46.87
12757;BME280;31601;48.042;12.240;2023-03-04T12:03:15;96414.88;;;10.80;46.82
12757;BME280;31601;48.042;12.240;2023-03-04T12:05:51;96407.19;;;10.63;45.47
12757;BME280;31601;48.042;12.240;2023-03-04T12:08:32;96407.88;;;10.04;45.07
12757;BME280;31601;48.042;12.240;2023-03-04T12:11:04;96412.91;;;10.29;46.23
12757;BME280;31601;48.042;12.240;2023-03-04T12:13:51;96406.75;;;9.98;46.34
12757;BME280;31601;48.042;12.240;2023-03-04T12:16:33;96403.97;;;9.77;46.92
12757;BME280;31601;48.042;12.240;2023-03-04T12:19:18;96399.00;;;9.59;47.38
12757;BME280;31601;48.042;12.240;2023-03-04T12:21:58;96394.69;;;9.66;48.19
12757;BME280;31601;48.042;12.240;2023-03-04T12:24:46;96395.28;;;9.99;47.53
12757;BME280;31601;48.042;12.240;2023-03-04T12:27:21;96390.22;;;9.75;46.32
12757;BME280;31601;48.042;12.240;2023-03-04T12:29:55;96384.63;;;9.78;47.69
12757;BME280;31601;48.042;12.240;2023-03-04T12:32:30;96383.06;;;9.68;48.52
12757;BME280;31601;48.042;12.240;2023-03-04T12:35:13;96382.41;;;9.66;47.62
12757;BME280;31601;48.042;12.240;2023-03-04T12:37:54;96376.34;;;9.66;46.81
12757;BME280;31601;48.042;12.240;2023-03-04T12:40:29;96375.72;;;9.64;49.05
12757;BME280;31601;48.042;12.240;2023-03-04T12:43:08;96371.41;;;9.71;47.90
12757;BME280;31601;48.042;12.240;2023-03-04T12:45:43;96364.38;;;9.95;46.56
12757;BME280;31601;48.042;12.240;2023-03-04T12:48:21;96369.78;;;9.47;47.19
12757;BME280;31601;48.042;12.240;2023-03-04T12:50:57;96363.00;;;9.99;46.65
12757;BME280;31601;48.042;12.240;2023-03-04T12:53:29;96371.22;;;9.96;48.11
12757;BME280;31601;48.042;12.240;2023-03-04T12:55:58;96361.88;;;10.16;47.64
12757;BME280;31601;48.042;12.240;2023-03-04T12:58:29;96357.16;;;10.35;46.11
12757;BME280;31601;48.042;12.240;2023-03-04T13:01:03;96351.72;;;10.51;46.13
12757;BME280;31601;48.042;12.240;2023-03-04T13:03:40;96350.38;;;10.41;46.74
12757;BME280;31601;48.042;12.240;2023-03-04T13:06:17;96348.91;;;10.00;45.52
12757;BME280;31601;48.042;12.240;2023-03-04T13:08:57;96338.28;;;10.16;47.23